Terminal Aerodrome Forecast
Issued by NWS

Current Version | Previous Version | Text Only | Print | Product List | Glossary On
Versions: 1 2 3 4 5 6 7 8 9 10 11 12 13 14
000
FTUS44 KBMX 272005 AAA
TAFTCL
TAF AMD
KTCL 272005Z 2720/2818 18010KT P6SM VCTS OVC045CB
      TEMPO 2720/2721 P6SM TSRA BKN045CB
     FM280100 18006KT P6SM BKN050=

USA.gov is the U.S. government's official web portal to all federal, state and local government web resources and services.